sensor_id;sensor_type;location;lat;lon;timestamp;temperature;humidity
56172;DHT22;42052;41.634;-0.946;2022-09-14T00:01:36;25.70;50.70
56172;DHT22;42052;41.634;-0.946;2022-09-14T00:04:11;25.60;48.90
56172;DHT22;42052;41.634;-0.946;2022-09-14T00:06:39;25.50;52.20
56172;DHT22;42052;41.634;-0.946;2022-09-14T00:09:05;25.50;55.50
56172;DHT22;42052;41.634;-0.946;2022-09-14T00:11:33;25.50;57.70
56172;DHT22;42052;41.634;-0.946;2022-09-14T00:14:00;25.50;58.00
56172;DHT22;42052;41.634;-0.946;2022-09-14T00:16:32;25.60;57.60
56172;DHT22;42052;41.634;-0.946;2022-09-14T00:19:00;25.60;57.30
56172;DHT22;42052;41.634;-0.946;2022-09-14T00:21:30;25.60;57.20
56172;DHT22;42052;41.634;-0.946;2022-09-14T00:23:56;25.70;57.20
56172;DHT22;42052;41.634;-0.946;2022-09-14T00:26:22;25.70;57.00
56172;DHT22;42052;41.634;-0.946;2022-09-14T00:28:53;25.80;57.10
56172;DHT22;42052;41.634;-0.946;2022-09-14T00:31:20;25.80;57.00
56172;DHT22;42052;41.634;-0.946;2022-09-14T00:33:47;25.80;56.80
56172;DHT22;42052;41.634;-0.946;2022-09-14T00:36:19;25.80;56.90
56172;DHT22;42052;41.634;-0.946;2022-09-14T00:38:46;25.90;57.00
56172;DHT22;42052;41.634;-0.946;2022-09-14T00:41:15;25.90;56.80
56172;DHT22;42052;41.634;-0.946;2022-09-14T00:44:00;25.90;56.90
56172;DHT22;42052;41.634;-0.946;2022-09-14T00:46:29;25.90;56.80
56172;DHT22;42052;41.634;-0.946;2022-09-14T00:48:58;26.00;56.90
56172;DHT22;42052;41.634;-0.946;2022-09-14T00:51:25;26.00;56.80
56172;DHT22;42052;41.634;-0.946;2022-09-14T00:53:51;26.00;56.80
56172;DHT22;42052;41.634;-0.946;2022-09-14T00:56:17;26.00;56.80
56172;DHT22;42052;41.634;-0.946;2022-09-14T00:58:45;26.00;56.80
56172;DHT22;42052;41.634;-0.946;2022-09-14T01:01:13;26.00;56.80
56172;DHT22;42052;41.634;-0.946;2022-09-14T01:03:39;26.10;57.00
56172;DHT22;42052;41.634;-0.946;2022-09-14T01:06:34;26.10;57.00
56172;DHT22;42052;41.634;-0.946;2022-09-14T01:17:29;26.10;57.00
56172;DHT22;42052;41.634;-0.946;2022-09-14T01:27:47;26.10;57.10
56172;DHT22;42052;41.634;-0.946;2022-09-14T01:30:18;26.20;57.20
56172;DHT22;42052;41.634;-0.946;2022-09-14T01:33:00;26.20;57.20
56172;DHT22;42052;41.634;-0.946;2022-09-14T01:35:32;26.20;57.30
56172;DHT22;42052;41.634;-0.946;2022-09-14T01:38:25;26.10;57.20
56172;DHT22;42052;41.634;-0.946;2022-09-14T01:40:52;26.20;57.30
56172;DHT22;42052;41.634;-0.946;2022-09-14T01:43:32;26.20;57.30
56172;DHT22;42052;41.634;-0.946;2022-09-14T01:46:07;26.20;57.30
56172;DHT22;42052;41.634;-0.946;2022-09-14T01:48:43;26.20;57.30
56172;DHT22;42052;41.634;-0.946;2022-09-14T01:51:13;26.20;57.30
56172;DHT22;42052;41.634;-0.946;2022-09-14T01:53:46;26.20;57.30
56172;DHT22;42052;41.634;-0.946;2022-09-14T01:58:59;26.20;57.40
56172;DHT22;42052;41.634;-0.946;2022-09-14T02:01:35;26.20;57.40
56172;DHT22;42052;41.634;-0.946;2022-09-14T02:04:06;26.20;57.50
56172;DHT22;42052;41.634;-0.946;2022-09-14T02:06:38;26.30;57.50
56172;DHT22;42052;41.634;-0.946;2022-09-14T02:09:07;26.30;57.50
56172;DHT22;42052;41.634;-0.946;2022-09-14T02:11:33;26.30;57.60
56172;DHT22;42052;41.634;-0.946;2022-09-14T02:14:00;26.20;57.50
56172;DHT22;42052;41.634;-0.946;2022-09-14T02:16:26;26.30;57.60
56172;DHT22;42052;41.634;-0.946;2022-09-14T02:18:52;26.30;57.50
56172;DHT22;42052;41.634;-0.946;2022-09-14T02:21:21;26.30;57.60
56172;DHT22;42052;41.634;-0.946;2022-09-14T02:23:49;26.30;57.50
56172;DHT22;42052;41.634;-0.946;2022-09-14T02:26:18;26.30;57.60
56172;DHT22;42052;41.634;-0.946;2022-09-14T02:28:44;26.30;57.50
56172;DHT22;42052;41.634;-0.946;2022-09-14T02:40:12;26.30;57.40
56172;DHT22;42052;41.634;-0.946;2022-09-14T02:42:49;26.30;57.40
56172;DHT22;42052;41.634;-0.946;2022-09-14T02:45:44;26.30;57.40
56172;DHT22;42052;41.634;-0.946;2022-09-14T02:56:35;26.30;57.40
56172;DHT22;42052;41.634;-0.946;2022-09-14T02:59:02;26.30;57.40
56172;DHT22;42052;41.634;-0.946;2022-09-14T03:01:28;26.30;57.40
56172;DHT22;42052;41.634;-0.946;2022-09-14T03:03:54;26.30;57.50
56172;DHT22;42052;41.634;-0.946;2022-09-14T03:06:21;26.30;57.40
56172;DHT22;42052;41.634;-0.946;2022-09-14T03:08:48;26.30;57.50
56172;DHT22;42052;41.634;-0.946;2022-09-14T03:11:14;26.30;57.40
56172;DHT22;42052;41.634;-0.946;2022-09-14T03:13:40;26.30;57.40
56172;DHT22;42052;41.634;-0.946;2022-09-14T03:16:13;26.30;57.40
56172;DHT22;42052;41.634;-0.946;2022-09-14T03:18:39;26.40;57.50
56172;DHT22;42052;41.634;-0.946;2022-09-14T03:21:10;26.30;57.40
56172;DHT22;42052;41.634;-0.946;2022-09-14T03:23:41;26.30;57.50
56172;DHT22;42052;41.634;-0.946;2022-09-14T03:26:13;26.30;57.50
56172;DHT22;42052;41.634;-0.946;2022-09-14T03:28:40;26.30;57.40
56172;DHT22;42052;41.634;-0.946;2022-09-14T03:31:08;26.30;57.50
56172;DHT22;42052;41.634;-0.946;2022-09-14T03:33:34;26.30;57.50
56172;DHT22;42052;41.634;-0.946;2022-09-14T03:36:09;26.40;57.50
56172;DHT22;42052;41.634;-0.946;2022-09-14T03:38:36;26.40;57.50
56172;DHT22;42052;41.634;-0.946;2022-09-14T03:41:07;26.40;57.50
56172;DHT22;42052;41.634;-0.946;2022-09-14T03:43:33;26.30;57.50
56172;DHT22;42052;41.634;-0.946;2022-09-14T03:46:07;26.40;57.50
56172;DHT22;42052;41.634;-0.946;2022-09-14T03:48:33;26.40;57.50
56172;DHT22;42052;41.634;-0.946;2022-09-14T03:51:00;26.40;57.50
56172;DHT22;42052;41.634;-0.946;2022-09-14T03:53:26;26.40;57.50
56172;DHT22;42052;41.634;-0.946;2022-09-14T03:55:52;26.40;57.50
56172;DHT22;42052;41.634;-0.946;2022-09-14T03:58:18;26.40;57.50
56172;DHT22;42052;41.634;-0.946;2022-09-14T04:00:44;26.40;57.50
56172;DHT22;42052;41.634;-0.946;2022-09-14T04:03:10;26.30;57.40
56172;DHT22;42052;41.634;-0.946;2022-09-14T04:05:36;26.40;57.50
56172;DHT22;42052;41.634;-0.946;2022-09-14T04:08:02;26.40;57.50
56172;DHT22;42052;41.634;-0.946;2022-09-14T04:10:28;26.40;57.50
56172;DHT22;42052;41.634;-0.946;2022-09-14T04:12:53;26.30;57.40
56172;DHT22;42052;41.634;-0.946;2022-09-14T04:15:19;26.30;57.50
56172;DHT22;42052;41.634;-0.946;2022-09-14T04:17:45;26.40;57.60
56172;DHT22;42052;41.634;-0.946;2022-09-14T04:20:12;26.40;57.60
56172;DHT22;42052;41.634;-0.946;2022-09-14T04:22:38;26.40;57.60
56172;DHT22;42052;41.634;-0.946;2022-09-14T04:25:04;26.40;57.50
56172;DHT22;42052;41.634;-0.946;2022-09-14T04:27:30;26.40;57.60
56172;DHT22;42052;41.634;-0.946;2022-09-14T04:29:56;26.40;57.60
56172;DHT22;42052;41.634;-0.946;2022-09-14T04:32:21;26.40;57.60
56172;DHT22;42052;41.634;-0.946;2022-09-14T04:34:47;26.40;57.70
56172;DHT22;42052;41.634;-0.946;2022-09-14T04:37:14;26.40;57.70
56172;DHT22;42052;41.634;-0.946;2022-09-14T04:39:39;26.40;57.70
56172;DHT22;42052;41.634;-0.946;2022-09-14T04:42:06;26.40;57.80
56172;DHT22;42052;41.634;-0.946;2022-09-14T04:44:32;26.40;57.70
56172;DHT22;42052;41.634;-0.946;2022-09-14T04:46:58;26.40;57.70
56172;DHT22;42052;41.634;-0.946;2022-09-14T04:49:24;26.40;57.70
56172;DHT22;42052;41.634;-0.946;2022-09-14T04:51:50;26.40;57.70
56172;DHT22;42052;41.634;-0.946;2022-09-14T04:54:16;26.40;58.50
56172;DHT22;42052;41.634;-0.946;2022-09-14T04:56:43;26.40;57.80
56172;DHT22;42052;41.634;-0.946;2022-09-14T04:59:09;26.40;57.70
56172;DHT22;42052;41.634;-0.946;2022-09-14T05:01:40;26.40;57.70
56172;DHT22;42052;41.634;-0.946;2022-09-14T05:04:07;26.40;57.70
56172;DHT22;42052;41.634;-0.946;2022-09-14T05:06:35;26.40;57.80
56172;DHT22;42052;41.634;-0.946;2022-09-14T05:09:03;26.40;57.70
56172;DHT22;42052;41.634;-0.946;2022-09-14T05:11:32;26.40;57.80
56172;DHT22;42052;41.634;-0.946;2022-09-14T05:13:59;26.40;57.80
56172;DHT22;42052;41.634;-0.946;2022-09-14T05:16:28;26.40;57.70
56172;DHT22;42052;41.634;-0.946;2022-09-14T05:18:59;26.40;57.80
56172;DHT22;42052;41.634;-0.946;2022-09-14T05:21:27;26.40;57.80
56172;DHT22;42052;41.634;-0.946;2022-09-14T05:24:02;26.40;57.80
56172;DHT22;42052;41.634;-0.946;2022-09-14T05:26:29;26.30;57.70
56172;DHT22;42052;41.634;-0.946;2022-09-14T05:28:57;26.40;57.70
56172;DHT22;42052;41.634;-0.946;2022-09-14T05:31:25;26.40;57.70
56172;DHT22;42052;41.634;-0.946;2022-09-14T05:33:51;26.40;57.70
56172;DHT22;42052;41.634;-0.946;2022-09-14T05:36:18;26.40;57.60
56172;DHT22;42052;41.634;-0.946;2022-09-14T05:38:44;26.40;57.70
56172;DHT22;42052;41.634;-0.946;2022-09-14T05:41:14;26.40;57.80
56172;DHT22;42052;41.634;-0.946;2022-09-14T05:43:41;26.40;57.70
56172;DHT22;42052;41.634;-0.946;2022-09-14T05:46:13;26.40;57.60
56172;DHT22;42052;41.634;-0.946;2022-09-14T05:48:39;26.40;57.60
56172;DHT22;42052;41.634;-0.946;2022-09-14T05:51:10;26.40;57.50
56172;DHT22;42052;41.634;-0.946;2022-09-14T05:53:38;26.40;57.50
56172;DHT22;42052;41.634;-0.946;2022-09-14T05:56:13;26.40;57.50
56172;DHT22;42052;41.634;-0.946;2022-09-14T05:58:40;26.50;57.50
56172;DHT22;42052;41.634;-0.946;2022-09-14T06:03:40;26.40;57.30
56172;DHT22;42052;41.634;-0.946;2022-09-14T06:06:07;26.50;57.40
56172;DHT22;42052;41.634;-0.946;2022-09-14T06:08:34;26.50;57.30
56172;DHT22;42052;41.634;-0.946;2022-09-14T06:11:04;26.50;57.30
56172;DHT22;42052;41.634;-0.946;2022-09-14T06:13:31;26.50;57.30
56172;DHT22;42052;41.634;-0.946;2022-09-14T06:16:02;26.50;57.30
56172;DHT22;42052;41.634;-0.946;2022-09-14T06:18:32;26.50;57.30
56172;DHT22;42052;41.634;-0.946;2022-09-14T06:20:58;26.50;57.30
56172;DHT22;42052;41.634;-0.946;2022-09-14T06:23:26;26.50;57.20
56172;DHT22;42052;41.634;-0.946;2022-09-14T06:25:53;26.40;57.20
56172;DHT22;42052;41.634;-0.946;2022-09-14T06:28:20;26.50;57.30
56172;DHT22;42052;41.634;-0.946;2022-09-14T06:30:46;26.50;57.20
56172;DHT22;42052;41.634;-0.946;2022-09-14T06:33:12;26.50;57.20
56172;DHT22;42052;41.634;-0.946;2022-09-14T06:35:37;26.50;57.20
56172;DHT22;42052;41.634;-0.946;2022-09-14T06:38:03;26.50;57.20
56172;DHT22;42052;41.634;-0.946;2022-09-14T06:40:29;26.50;57.20
56172;DHT22;42052;41.634;-0.946;2022-09-14T06:42:55;26.50;57.20
56172;DHT22;42052;41.634;-0.946;2022-09-14T06:45:28;26.50;57.10
56172;DHT22;42052;41.634;-0.946;2022-09-14T06:47:54;26.50;57.10
56172;DHT22;42052;41.634;-0.946;2022-09-14T06:50:20;26.40;57.10
56172;DHT22;42052;41.634;-0.946;2022-09-14T06:52:45;26.50;57.10
56172;DHT22;42052;41.634;-0.946;2022-09-14T06:55:11;26.50;57.10
56172;DHT22;42052;41.634;-0.946;2022-09-14T06:57:37;26.40;57.00
56172;DHT22;42052;41.634;-0.946;2022-09-14T07:00:04;26.50;57.10
56172;DHT22;42052;41.634;-0.946;2022-09-14T07:02:30;26.50;57.10
56172;DHT22;42052;41.634;-0.946;2022-09-14T07:04:56;26.50;57.10
56172;DHT22;42052;41.634;-0.946;2022-09-14T07:07:22;26.50;57.10
56172;DHT22;42052;41.634;-0.946;2022-09-14T07:09:48;26.50;57.10
56172;DHT22;42052;41.634;-0.946;2022-09-14T07:12:14;26.50;57.10
56172;DHT22;42052;41.634;-0.946;2022-09-14T07:14:39;26.40;57.00
56172;DHT22;42052;41.634;-0.946;2022-09-14T07:17:05;26.40;57.00
56172;DHT22;42052;41.634;-0.946;2022-09-14T07:19:31;26.50;57.10
56172;DHT22;42052;41.634;-0.946;2022-09-14T07:21:57;26.50;57.10
56172;DHT22;42052;41.634;-0.946;2022-09-14T07:24:23;26.50;57.10
56172;DHT22;42052;41.634;-0.946;2022-09-14T07:26:49;26.50;57.80
56172;DHT22;42052;41.634;-0.946;2022-09-14T07:29:17;26.50;57.10
56172;DHT22;42052;41.634;-0.946;2022-09-14T07:31:46;26.50;57.10
56172;DHT22;42052;41.634;-0.946;2022-09-14T07:34:13;26.50;57.10
56172;DHT22;42052;41.634;-0.946;2022-09-14T07:36:40;26.50;57.10
56172;DHT22;42052;41.634;-0.946;2022-09-14T07:39:09;26.50;57.10
56172;DHT22;42052;41.634;-0.946;2022-09-14T07:41:35;26.50;57.00
56172;DHT22;42052;41.634;-0.946;2022-09-14T07:44:03;26.50;57.00
56172;DHT22;42052;41.634;-0.946;2022-09-14T07:46:31;26.50;57.00
56172;DHT22;42052;41.634;-0.946;2022-09-14T07:49:01;26.50;57.00
56172;DHT22;42052;41.634;-0.946;2022-09-14T07:51:28;26.50;57.00
56172;DHT22;42052;41.634;-0.946;2022-09-14T07:53:55;26.40;56.90
56172;DHT22;42052;41.634;-0.946;2022-09-14T07:56:21;26.50;56.90
56172;DHT22;42052;41.634;-0.946;2022-09-14T07:58:48;26.50;57.00
56172;DHT22;42052;41.634;-0.946;2022-09-14T08:01:17;26.50;56.90
56172;DHT22;42052;41.634;-0.946;2022-09-14T08:03:44;26.50;56.90
56172;DHT22;42052;41.634;-0.946;2022-09-14T08:06:12;26.50;57.00
56172;DHT22;42052;41.634;-0.946;2022-09-14T08:08:40;26.50;57.00
56172;DHT22;42052;41.634;-0.946;2022-09-14T08:11:08;26.50;57.00
56172;DHT22;42052;41.634;-0.946;2022-09-14T08:13:37;26.50;57.00
56172;DHT22;42052;41.634;-0.946;2022-09-14T08:16:04;26.50;57.70
56172;DHT22;42052;41.634;-0.946;2022-09-14T08:18:31;26.40;56.90
56172;DHT22;42052;41.634;-0.946;2022-09-14T08:21:05;26.50;57.00
56172;DHT22;42052;41.634;-0.946;2022-09-14T08:23:33;26.50;57.00
56172;DHT22;42052;41.634;-0.946;2022-09-14T08:26:04;26.50;57.00
56172;DHT22;42052;41.634;-0.946;2022-09-14T08:28:30;26.50;57.00
56172;DHT22;42052;41.634;-0.946;2022-09-14T08:33:31;26.50;57.70
56172;DHT22;42052;41.634;-0.946;2022-09-14T08:35:57;26.50;57.00
56172;DHT22;42052;41.634;-0.946;2022-09-14T08:38:24;26.50;56.90
56172;DHT22;42052;41.634;-0.946;2022-09-14T08:40:50;26.50;56.90
56172;DHT22;42052;41.634;-0.946;2022-09-14T08:43:17;26.50;56.90
56172;DHT22;42052;41.634;-0.946;2022-09-14T08:45:44;26.50;56.90
56172;DHT22;42052;41.634;-0.946;2022-09-14T08:48:40;26.50;56.90
56172;DHT22;42052;41.634;-0.946;2022-09-14T08:51:09;26.50;56.90
56172;DHT22;42052;41.634;-0.946;2022-09-14T08:53:38;26.50;56.90
56172;DHT22;42052;41.634;-0.946;2022-09-14T08:56:22;26.50;56.90
56172;DHT22;42052;41.634;-0.946;2022-09-14T09:04:24;26.50;56.80
56172;DHT22;42052;41.634;-0.946;2022-09-14T09:09:55;26.50;56.70
56172;DHT22;42052;41.634;-0.946;2022-09-14T09:12:46;26.50;56.70
56172;DHT22;42052;41.634;-0.946;2022-09-14T09:15:26;26.50;56.70
56172;DHT22;42052;41.634;-0.946;2022-09-14T09:18:14;26.50;56.70
56172;DHT22;42052;41.634;-0.946;2022-09-14T09:20:58;26.50;56.70
56172;DHT22;42052;41.634;-0.946;2022-09-14T09:23:27;26.50;56.70
56172;DHT22;42052;41.634;-0.946;2022-09-14T09:28:24;26.50;56.70
56172;DHT22;42052;41.634;-0.946;2022-09-14T09:30:52;26.50;56.70
56172;DHT22;42052;41.634;-0.946;2022-09-14T09:33:23;26.50;56.70
56172;DHT22;42052;41.634;-0.946;2022-09-14T09:35:52;26.50;56.70
56172;DHT22;42052;41.634;-0.946;2022-09-14T09:38:20;26.50;56.70
56172;DHT22;42052;41.634;-0.946;2022-09-14T09:41:00;26.50;56.70
56172;DHT22;42052;41.634;-0.946;2022-09-14T09:43:30;26.60;56.80
56172;DHT22;42052;41.634;-0.946;2022-09-14T09:45:59;26.50;56.70
56172;DHT22;42052;41.634;-0.946;2022-09-14T09:48:45;26.60;56.80
56172;DHT22;42052;41.634;-0.946;2022-09-14T09:51:13;26.60;56.70
56172;DHT22;42052;41.634;-0.946;2022-09-14T09:53:48;26.60;56.70
56172;DHT22;42052;41.634;-0.946;2022-09-14T09:56:52;26.60;56.70
56172;DHT22;42052;41.634;-0.946;2022-09-14T09:59:27;26.60;56.70
56172;DHT22;42052;41.634;-0.946;2022-09-14T10:01:55;26.60;56.70
56172;DHT22;42052;41.634;-0.946;2022-09-14T10:04:26;26.60;56.70
56172;DHT22;42052;41.634;-0.946;2022-09-14T10:06:53;26.60;56.70
56172;DHT22;42052;41.634;-0.946;2022-09-14T10:09:22;26.60;56.70
56172;DHT22;42052;41.634;-0.946;2022-09-14T10:11:59;26.60;56.60
56172;DHT22;42052;41.634;-0.946;2022-09-14T10:14:30;26.60;56.70
56172;DHT22;42052;41.634;-0.946;2022-09-14T10:17:17;26.60;56.60
56172;DHT22;42052;41.634;-0.946;2022-09-14T10:19:51;26.60;56.60
56172;DHT22;42052;41.634;-0.946;2022-09-14T10:22:34;26.70;56.70
56172;DHT22;42052;41.634;-0.946;2022-09-14T10:33:18;26.60;56.50
56172;DHT22;42052;41.634;-0.946;2022-09-14T10:50:02;26.70;56.50
56172;DHT22;42052;41.634;-0.946;2022-09-14T10:52:55;26.70;56.50
56172;DHT22;42052;41.634;-0.946;2022-09-14T10:58:11;26.70;56.50
56172;DHT22;42052;41.634;-0.946;2022-09-14T11:08:37;26.70;56.50
56172;DHT22;42052;41.634;-0.946;2022-09-14T11:22:17;26.70;56.40
56172;DHT22;42052;41.634;-0.946;2022-09-14T11:24:58;26.70;56.40
56172;DHT22;42052;41.634;-0.946;2022-09-14T11:30:21;26.70;56.30
56172;DHT22;42052;41.634;-0.946;2022-09-14T11:33:11;26.70;56.30
56172;DHT22;42052;41.634;-0.946;2022-09-14T11:35:47;26.70;56.30
56172;DHT22;42052;41.634;-0.946;2022-09-14T11:38:20;26.70;56.30
56172;DHT22;42052;41.634;-0.946;2022-09-14T11:40:54;26.70;56.30
56172;DHT22;42052;41.634;-0.946;2022-09-14T11:43:24;26.70;56.30
56172;DHT22;42052;41.634;-0.946;2022-09-14T11:46:05;26.70;56.30
56172;DHT22;42052;41.634;-0.946;2022-09-14T11:48:46;26.80;56.30
56172;DHT22;42052;41.634;-0.946;2022-09-14T11:51:41;26.80;56.30
56172;DHT22;42052;41.634;-0.946;2022-09-14T11:54:19;26.70;56.20
56172;DHT22;42052;41.634;-0.946;2022-09-14T11:56:55;26.70;56.20
56172;DHT22;42052;41.634;-0.946;2022-09-14T12:10:22;26.80;56.20
56172;DHT22;42052;41.634;-0.946;2022-09-14T12:15:33;26.80;56.20
56172;DHT22;42052;41.634;-0.946;2022-09-14T12:26:25;26.80;56.20
56172;DHT22;42052;41.634;-0.946;2022-09-14T12:28:52;26.80;56.20
56172;DHT22;42052;41.634;-0.946;2022-09-14T12:34:23;26.80;56.10
56172;DHT22;42052;41.634;-0.946;2022-09-14T12:44:32;26.90;56.10
56172;DHT22;42052;41.634;-0.946;2022-09-14T12:49:52;26.90;56.10
56172;DHT22;42052;41.634;-0.946;2022-09-14T12:52:32;26.90;56.00
56172;DHT22;42052;41.634;-0.946;2022-09-14T13:00:59;26.90;56.00
56172;DHT22;42052;41.634;-0.946;2022-09-14T13:03:45;26.90;56.00
56172;DHT22;42052;41.634;-0.946;2022-09-14T13:06:12;26.90;56.00
56172;DHT22;42052;41.634;-0.946;2022-09-14T13:08:43;26.90;56.00
56172;DHT22;42052;41.634;-0.946;2022-09-14T13:11:16;26.90;56.00
56172;DHT22;42052;41.634;-0.946;2022-09-14T13:13:42;26.80;55.90
56172;DHT22;42052;41.634;-0.946;2022-09-14T13:16:16;26.90;56.00
56172;DHT22;42052;41.634;-0.946;2022-09-14T13:18:44;26.90;56.00
56172;DHT22;42052;41.634;-0.946;2022-09-14T13:21:23;26.90;56.00
56172;DHT22;42052;41.634;-0.946;2022-09-14T13:23:49;26.90;56.00
56172;DHT22;42052;41.634;-0.946;2022-09-14T13:26:27;26.90;56.00
56172;DHT22;42052;41.634;-0.946;2022-09-14T13:28:55;26.90;56.00
56172;DHT22;42052;41.634;-0.946;2022-09-14T13:31:33;26.90;56.00
56172;DHT22;42052;41.634;-0.946;2022-09-14T13:34:00;26.90;56.00
56172;DHT22;42052;41.634;-0.946;2022-09-14T13:36:36;26.90;56.00
56172;DHT22;42052;41.634;-0.946;2022-09-14T13:39:28;26.90;55.90
56172;DHT22;42052;41.634;-0.946;2022-09-14T13:41:55;26.90;55.90
56172;DHT22;42052;41.634;-0.946;2022-09-14T13:44:29;26.90;55.90
56172;DHT22;42052;41.634;-0.946;2022-09-14T13:46:58;26.90;55.90
56172;DHT22;42052;41.634;-0.946;2022-09-14T13:49:25;26.90;56.60
56172;DHT22;42052;41.634;-0.946;2022-09-14T13:51:51;26.90;55.90
56172;DHT22;42052;41.634;-0.946;2022-09-14T14:02:52;26.90;55.90
56172;DHT22;42052;41.634;-0.946;2022-09-14T14:05:33;26.90;55.90
56172;DHT22;42052;41.634;-0.946;2022-09-14T14:08:02;26.90;55.80
56172;DHT22;42052;41.634;-0.946;2022-09-14T14:10:37;26.90;55.80
56172;DHT22;42052;41.634;-0.946;2022-09-14T14:13:04;26.90;55.90
56172;DHT22;42052;41.634;-0.946;2022-09-14T14:17:56;26.90;55.90
56172;DHT22;42052;41.634;-0.946;2022-09-14T14:20:35;26.90;55.80
56172;DHT22;42052;41.634;-0.946;2022-09-14T14:23:18;26.90;55.80
56172;DHT22;42052;41.634;-0.946;2022-09-14T14:26:09;26.90;55.90
56172;DHT22;42052;41.634;-0.946;2022-09-14T14:28:36;26.90;55.80
56172;DHT22;42052;41.634;-0.946;2022-09-14T14:31:02;26.90;55.80
56172;DHT22;42052;41.634;-0.946;2022-09-14T14:33:29;26.90;55.80
56172;DHT22;42052;41.634;-0.946;2022-09-14T14:35:55;26.90;55.80
56172;DHT22;42052;41.634;-0.946;2022-09-14T14:38:22;26.90;55.80
56172;DHT22;42052;41.634;-0.946;2022-09-14T14:40:51;26.90;55.80
56172;DHT22;42052;41.634;-0.946;2022-09-14T14:43:21;26.90;55.80
56172;DHT22;42052;41.634;-0.946;2022-09-14T14:45:57;26.90;55.80
56172;DHT22;42052;41.634;-0.946;2022-09-14T14:48:24;26.90;55.80
56172;DHT22;42052;41.634;-0.946;2022-09-14T14:50:50;26.90;55.80
56172;DHT22;42052;41.634;-0.946;2022-09-14T14:53:17;26.90;55.80
56172;DHT22;42052;41.634;-0.946;2022-09-14T14:55:42;27.00;55.90
56172;DHT22;42052;41.634;-0.946;2022-09-14T14:58:14;26.90;55.80
56172;DHT22;42052;41.634;-0.946;2022-09-14T15:00:40;26.90;55.80
56172;DHT22;42052;41.634;-0.946;2022-09-14T15:03:06;26.90;55.70
56172;DHT22;42052;41.634;-0.946;2022-09-14T15:05:32;26.90;55.80
56172;DHT22;42052;41.634;-0.946;2022-09-14T15:07:58;27.00;55.80
56172;DHT22;42052;41.634;-0.946;2022-09-14T15:10:26;27.00;55.80
56172;DHT22;42052;41.634;-0.946;2022-09-14T15:12:52;27.00;55.80
56172;DHT22;42052;41.634;-0.946;2022-09-14T15:15:23;27.00;55.80
56172;DHT22;42052;41.634;-0.946;2022-09-14T15:17:49;27.00;55.80
56172;DHT22;42052;41.634;-0.946;2022-09-14T15:20:15;27.00;55.80
56172;DHT22;42052;41.634;-0.946;2022-09-14T15:22:45;27.00;55.80
56172;DHT22;42052;41.634;-0.946;2022-09-14T15:25:12;27.00;55.80
56172;DHT22;42052;41.634;-0.946;2022-09-14T15:27:38;27.00;55.70
56172;DHT22;42052;41.634;-0.946;2022-09-14T15:30:06;27.00;55.70
56172;DHT22;42052;41.634;-0.946;2022-09-14T15:32:32;27.00;55.70
56172;DHT22;42052;41.634;-0.946;2022-09-14T15:34:58;27.00;55.70
56172;DHT22;42052;41.634;-0.946;2022-09-14T15:37:24;27.00;55.70
56172;DHT22;42052;41.634;-0.946;2022-09-14T15:39:50;27.00;56.50
56172;DHT22;42052;41.634;-0.946;2022-09-14T15:42:17;27.00;55.70
56172;DHT22;42052;41.634;-0.946;2022-09-14T15:44:43;27.00;55.80
56172;DHT22;42052;41.634;-0.946;2022-09-14T15:47:12;27.00;55.70
56172;DHT22;42052;41.634;-0.946;2022-09-14T15:49:41;27.00;55.70
56172;DHT22;42052;41.634;-0.946;2022-09-14T15:52:08;27.00;55.70
56172;DHT22;42052;41.634;-0.946;2022-09-14T15:54:35;27.00;55.70
56172;DHT22;42052;41.634;-0.946;2022-09-14T15:57:07;27.00;55.70
56172;DHT22;42052;41.634;-0.946;2022-09-14T15:59:33;27.00;55.70
56172;DHT22;42052;41.634;-0.946;2022-09-14T16:01:59;27.00;55.70
56172;DHT22;42052;41.634;-0.946;2022-09-14T16:04:25;27.00;55.60
56172;DHT22;42052;41.634;-0.946;2022-09-14T16:06:52;27.00;55.70
56172;DHT22;42052;41.634;-0.946;2022-09-14T16:09:18;27.00;55.60
56172;DHT22;42052;41.634;-0.946;2022-09-14T16:11:46;27.00;55.60
56172;DHT22;42052;41.634;-0.946;2022-09-14T16:14:12;27.00;55.70
56172;DHT22;42052;41.634;-0.946;2022-09-14T16:16:38;27.00;55.60
56172;DHT22;42052;41.634;-0.946;2022-09-14T16:19:05;27.00;55.60
56172;DHT22;42052;41.634;-0.946;2022-09-14T16:21:31;27.00;55.70
56172;DHT22;42052;41.634;-0.946;2022-09-14T16:23:59;27.00;55.70
56172;DHT22;42052;41.634;-0.946;2022-09-14T16:26:27;27.00;55.70
56172;DHT22;42052;41.634;-0.946;2022-09-14T16:28:54;27.00;55.70
56172;DHT22;42052;41.634;-0.946;2022-09-14T16:33:50;27.00;56.50
56172;DHT22;42052;41.634;-0.946;2022-09-14T16:36:26;27.00;55.70
56172;DHT22;42052;41.634;-0.946;2022-09-14T16:38:55;27.00;55.70
56172;DHT22;42052;41.634;-0.946;2022-09-14T16:41:22;27.00;55.70
56172;DHT22;42052;41.634;-0.946;2022-09-14T16:43:58;27.00;55.70
56172;DHT22;42052;41.634;-0.946;2022-09-14T16:46:26;27.00;55.80
56172;DHT22;42052;41.634;-0.946;2022-09-14T16:48:52;27.00;55.70
56172;DHT22;42052;41.634;-0.946;2022-09-14T16:51:21;27.00;55.70
56172;DHT22;42052;41.634;-0.946;2022-09-14T16:53:47;27.00;55.70
56172;DHT22;42052;41.634;-0.946;2022-09-14T16:56:15;27.00;55.60
56172;DHT22;42052;41.634;-0.946;2022-09-14T16:58:42;27.00;55.70
56172;DHT22;42052;41.634;-0.946;2022-09-14T17:01:23;27.00;55.70
56172;DHT22;42052;41.634;-0.946;2022-09-14T17:03:50;27.00;55.70
56172;DHT22;42052;41.634;-0.946;2022-09-14T17:06:22;27.00;55.70
56172;DHT22;42052;41.634;-0.946;2022-09-14T17:08:48;27.00;55.70
56172;DHT22;42052;41.634;-0.946;2022-09-14T17:11:15;27.00;55.70
56172;DHT22;42052;41.634;-0.946;2022-09-14T17:13:44;27.00;55.70
56172;DHT22;42052;41.634;-0.946;2022-09-14T17:16:16;27.00;55.70
56172;DHT22;42052;41.634;-0.946;2022-09-14T17:18:44;27.00;55.80
56172;DHT22;42052;41.634;-0.946;2022-09-14T17:21:18;27.00;55.80
56172;DHT22;42052;41.634;-0.946;2022-09-14T17:23:44;27.00;55.80
56172;DHT22;42052;41.634;-0.946;2022-09-14T17:26:12;27.00;55.80
56172;DHT22;42052;41.634;-0.946;2022-09-14T17:28:39;27.00;55.80
56172;DHT22;42052;41.634;-0.946;2022-09-14T17:31:06;27.00;55.80
56172;DHT22;42052;41.634;-0.946;2022-09-14T17:33:33;27.00;55.80
56172;DHT22;42052;41.634;-0.946;2022-09-14T17:36:02;27.00;55.80
56172;DHT22;42052;41.634;-0.946;2022-09-14T17:38:31;27.00;55.80
56172;DHT22;42052;41.634;-0.946;2022-09-14T17:41:05;27.10;55.80
56172;DHT22;42052;41.634;-0.946;2022-09-14T17:43:32;27.00;55.80
56172;DHT22;42052;41.634;-0.946;2022-09-14T17:45:59;27.00;55.80
56172;DHT22;42052;41.634;-0.946;2022-09-14T17:48:26;27.00;55.80
56172;DHT22;42052;41.634;-0.946;2022-09-14T17:50:53;27.10;55.80
56172;DHT22;42052;41.634;-0.946;2022-09-14T17:53:19;27.10;55.80
56172;DHT22;42052;41.634;-0.946;2022-09-14T17:55:46;27.00;55.80
56172;DHT22;42052;41.634;-0.946;2022-09-14T17:58:12;27.10;55.90
56172;DHT22;42052;41.634;-0.946;2022-09-14T18:00:38;27.10;55.90
56172;DHT22;42052;41.634;-0.946;2022-09-14T18:03:04;27.10;55.90
56172;DHT22;42052;41.634;-0.946;2022-09-14T18:05:31;27.10;55.90